createdAt,value
2017-11-03T00:00:50.448Z,5.30
2017-11-03T00:03:19.911Z,6.32
2017-11-03T00:05:48.599Z,5.00
2017-11-03T00:08:17.273Z,5.62
2017-11-03T00:10:45.969Z,6.07
2017-11-03T00:13:14.638Z,5.00
2017-11-03T00:15:43.314Z,6.00
2017-11-03T00:18:12.010Z,7.15
2017-11-03T00:20:40.685Z,4.65
2017-11-03T00:23:09.364Z,5.87
2017-11-03T00:25:38.072Z,8.02
2017-11-03T00:28:06.759Z,4.62
2017-11-03T00:30:35.451Z,6.18
2017-11-03T00:33:04.138Z,7.45
2017-11-03T00:35:32.813Z,5.65
2017-11-03T00:38:01.491Z,5.50
2017-11-03T00:40:30.170Z,6.85
2017-11-03T00:42:58.841Z,8.02
2017-11-03T00:45:28.546Z,6.22
2017-11-03T00:47:57.223Z,5.72
2017-11-03T00:50:25.885Z,8.98
2017-11-03T00:52:54.587Z,7.35
2017-11-03T00:55:23.253Z,4.75
2017-11-03T00:57:51.923Z,4.70
2017-11-03T01:00:20.615Z,5.95
2017-11-03T01:02:49.281Z,5.70
2017-11-03T01:05:17.943Z,4.53
2017-11-03T01:07:46.455Z,6.90
2017-11-03T01:10:15.123Z,4.20
2017-11-03T01:12:44.555Z,5.07
2017-11-03T01:15:13.026Z,6.50
2017-11-03T01:17:41.696Z,5.80
2017-11-03T01:20:11.130Z,7.87
2017-11-03T01:22:39.844Z,6.80
2017-11-03T01:25:08.522Z,5.18
2017-11-03T01:27:37.191Z,4.87
2017-11-03T01:30:05.879Z,5.93
2017-11-03T01:32:34.604Z,5.12
2017-11-03T01:35:02.944Z,4.25
2017-11-03T01:37:31.607Z,4.85
2017-11-03T01:40:00.333Z,3.95
2017-11-03T01:42:29.006Z,6.57
2017-11-03T01:44:57.677Z,5.90
2017-11-03T01:47:26.355Z,4.30
2017-11-03T01:49:55.022Z,5.55
2017-11-03T01:52:23.773Z,4.97
2017-11-03T01:54:52.457Z,5.12
2017-11-03T01:57:21.142Z,3.40
2017-11-03T01:59:49.837Z,5.00
2017-11-03T02:02:18.500Z,2.90
2017-11-03T02:04:46.962Z,4.00
2017-11-03T02:07:15.384Z,4.50
2017-11-03T02:09:44.559Z,4.20
2017-11-03T02:12:12.987Z,4.47
2017-11-03T02:14:41.382Z,3.10
2017-11-03T02:17:10.049Z,7.57
2017-11-03T02:19:37.796Z,5.70
2017-11-03T02:22:05.520Z,4.10
2017-11-03T02:24:33.941Z,3.30
2017-11-03T02:27:02.389Z,3.40
2017-11-03T02:29:31.821Z,3.00
2017-11-03T02:32:00.999Z,3.93
2017-11-03T02:34:29.096Z,4.27
2017-11-03T02:36:58.281Z,3.77
2017-11-03T02:39:26.690Z,4.90
2017-11-03T02:41:55.135Z,3.37
2017-11-03T02:44:22.853Z,4.90
2017-11-03T02:46:51.278Z,5.47
2017-11-03T02:49:19.697Z,5.17
2017-11-03T02:51:48.100Z,6.27
2017-11-03T02:54:16.521Z,3.53
2017-11-03T02:56:44.939Z,2.47
2017-11-03T02:59:13.352Z,4.93
2017-11-03T03:01:41.787Z,4.10
2017-11-03T03:04:10.958Z,4.80
2017-11-03T03:06:39.363Z,2.73
2017-11-03T03:09:08.575Z,4.27
2017-11-03T03:11:36.988Z,2.90
2017-11-03T03:14:05.400Z,4.80
2017-11-03T03:16:33.862Z,3.00
2017-11-03T03:19:01.920Z,3.27
2017-11-03T03:21:30.330Z,3.43
2017-11-03T03:23:58.409Z,2.90
2017-11-03T03:26:26.621Z,6.87
2017-11-03T03:28:55.030Z,3.47
2017-11-03T03:31:23.468Z,4.80
2017-11-03T03:33:52.293Z,4.20
2017-11-03T03:36:20.712Z,4.73
2017-11-03T03:38:49.139Z,4.93
2017-11-03T03:41:17.550Z,3.23
2017-11-03T03:43:45.959Z,3.33
2017-11-03T03:46:14.064Z,2.90
2017-11-03T03:48:41.818Z,3.90
2017-11-03T03:51:10.990Z,3.60
2017-11-03T03:53:39.425Z,3.20
2017-11-03T03:56:07.497Z,3.87
2017-11-03T03:58:35.927Z,4.63
2017-11-03T04:01:04.342Z,3.73
2017-11-03T04:03:32.755Z,3.80
2017-11-03T04:06:01.191Z,5.47
2017-11-03T04:08:30.388Z,3.60
2017-11-03T04:10:58.866Z,3.50
2017-11-03T04:13:28.063Z,2.87
2017-11-03T04:15:57.250Z,4.67
2017-11-03T04:18:25.671Z,5.23
2017-11-03T04:20:54.092Z,3.30
2017-11-03T04:23:22.506Z,3.33
2017-11-03T04:25:51.011Z,3.47
2017-11-03T04:28:19.415Z,2.50
2017-11-03T04:30:47.483Z,4.67
2017-11-03T04:33:15.928Z,3.40
2017-11-03T04:35:45.117Z,3.17
2017-11-03T04:38:14.299Z,3.90
2017-11-03T04:40:44.034Z,4.07
2017-11-03T04:43:13.214Z,4.77
2017-11-03T04:45:40.932Z,6.00
2017-11-03T04:48:09.363Z,6.93
2017-11-03T04:50:37.780Z,5.23
2017-11-03T04:53:05.506Z,5.57
2017-11-03T04:55:33.616Z,5.97
2017-11-03T04:58:02.113Z,3.90
2017-11-03T05:00:30.522Z,9.47
2017-11-03T05:02:59.215Z,4.30
2017-11-03T05:05:27.662Z,5.57
2017-11-03T05:07:56.102Z,4.63
2017-11-03T05:10:25.279Z,5.17
2017-11-03T05:12:53.716Z,5.37
2017-11-03T05:15:22.128Z,7.57
2017-11-03T05:17:50.546Z,5.73
2017-11-03T05:20:19.779Z,8.80
2017-11-03T05:22:48.200Z,5.00
2017-11-03T05:25:16.608Z,6.07
2017-11-03T05:27:45.838Z,10.03
2017-11-03T05:30:14.244Z,6.50
2017-11-03T05:32:42.716Z,5.80
2017-11-03T05:35:10.455Z,5.83
2017-11-03T05:37:38.858Z,6.90
2017-11-03T05:40:06.918Z,4.57
2017-11-03T05:42:36.377Z,5.05
2017-11-03T05:45:05.213Z,5.53
2017-11-03T05:47:33.626Z,4.60
2017-11-03T05:50:02.341Z,4.82
2017-11-03T05:52:31.528Z,5.60
2017-11-03T05:54:59.856Z,4.70
2017-11-03T05:57:28.310Z,8.37
2017-11-03T05:59:57.487Z,5.67
2017-11-03T06:02:25.988Z,4.85
2017-11-03T06:04:54.903Z,3.75
2017-11-03T06:07:23.295Z,4.50
2017-11-03T06:09:52.730Z,5.15
2017-11-03T06:12:21.286Z,3.95
2017-11-03T06:14:49.799Z,4.20
2017-11-03T06:17:18.476Z,6.18
2017-11-03T06:19:47.190Z,5.68
2017-11-03T06:22:15.863Z,4.85
2017-11-03T06:24:44.521Z,5.40
2017-11-03T06:27:13.993Z,7.03
2017-11-03T06:29:42.668Z,8.82
2017-11-03T06:32:11.341Z,5.65
2017-11-03T06:34:40.032Z,7.47
2017-11-03T06:37:08.693Z,8.52
2017-11-03T06:39:37.012Z,5.93
2017-11-03T06:42:05.726Z,7.85
2017-11-03T06:44:35.189Z,8.65
2017-11-03T06:47:04.134Z,6.30
2017-11-03T06:49:32.817Z,10.20
2017-11-03T06:52:01.238Z,4.77
2017-11-03T06:54:29.925Z,6.57
2017-11-03T06:56:58.332Z,6.10
2017-11-03T06:59:26.809Z,6.13
2017-11-03T07:01:55.761Z,5.43
2017-11-03T07:04:24.444Z,6.60
2017-11-03T07:06:53.869Z,7.97
2017-11-03T07:09:22.300Z,5.73
2017-11-03T07:11:50.368Z,6.13
2017-11-03T07:14:19.034Z,6.90
2017-11-03T07:16:48.509Z,6.40
2017-11-03T07:19:16.942Z,4.90
2017-11-03T07:21:45.644Z,5.80
2017-11-03T07:24:14.092Z,6.07
2017-11-03T07:26:43.265Z,6.73
2017-11-03T07:29:11.669Z,4.53
2017-11-03T07:31:40.885Z,7.37
2017-11-03T07:34:09.369Z,5.27
2017-11-03T07:36:38.014Z,4.97
2017-11-03T07:39:06.453Z,4.50
2017-11-03T07:41:34.850Z,4.83
2017-11-03T07:44:03.259Z,4.67
2017-11-03T07:46:31.690Z,6.23
2017-11-03T07:49:00.113Z,6.50
2017-11-03T07:51:28.550Z,7.63
2017-11-03T07:53:57.006Z,5.90
2017-11-03T07:56:25.450Z,6.10
2017-11-03T07:58:53.560Z,6.90
2017-11-03T08:01:22.751Z,5.07
2017-11-03T08:03:51.992Z,6.70
2017-11-03T08:06:20.418Z,4.07
2017-11-03T08:08:48.839Z,6.17
2017-11-03T08:11:17.297Z,5.50
2017-11-03T08:13:46.483Z,6.83
2017-11-03T08:16:14.930Z,5.77
2017-11-03T08:18:43.370Z,6.20
2017-11-03T08:21:11.789Z,4.87
2017-11-03T08:23:40.436Z,4.80
2017-11-03T08:26:08.882Z,9.53
2017-11-03T08:28:37.325Z,4.60
2017-11-03T08:31:05.735Z,4.30
2017-11-03T08:33:34.603Z,3.83
2017-11-03T08:36:03.091Z,5.07
2017-11-03T08:38:31.526Z,6.20
2017-11-03T08:41:00.746Z,3.63
2017-11-03T08:43:29.197Z,2.57
2017-11-03T08:45:58.381Z,3.73
2017-11-03T08:48:26.814Z,4.10
2017-11-03T08:50:55.246Z,3.40
2017-11-03T08:53:23.652Z,4.17
2017-11-03T08:55:52.112Z,3.20
2017-11-03T08:58:20.529Z,3.37
2017-11-03T09:00:48.942Z,7.70
2017-11-03T09:03:17.389Z,3.97
2017-11-03T09:05:45.800Z,3.60
2017-11-03T09:08:13.877Z,3.33
2017-11-03T09:10:42.342Z,3.20
2017-11-03T09:13:10.764Z,4.10
2017-11-03T09:15:38.829Z,7.43
2017-11-03T09:18:07.274Z,3.70
2017-11-03T09:20:35.019Z,11.33
2017-11-03T09:23:03.034Z,12.03
2017-11-03T09:25:30.876Z,17.07
2017-11-03T09:27:59.016Z,13.57
2017-11-03T09:30:27.486Z,13.33
2017-11-03T09:32:56.188Z,14.93
2017-11-03T09:35:24.689Z,18.00
2017-11-03T09:37:53.038Z,16.20
2017-11-03T09:40:22.308Z,14.63
2017-11-03T09:42:50.816Z,15.53
2017-11-03T09:45:18.649Z,21.97
2017-11-03T09:47:47.153Z,14.27
2017-11-03T09:50:15.275Z,14.00
2017-11-03T09:52:43.797Z,13.37
2017-11-03T09:55:12.366Z,15.63
2017-11-03T09:57:40.835Z,9.87
2017-11-03T10:00:09.350Z,16.70
2017-11-03T10:02:37.837Z,13.90
2017-11-03T10:05:05.958Z,10.10
2017-11-03T10:07:34.440Z,10.87
2017-11-03T10:10:02.917Z,11.23
2017-11-03T10:12:31.309Z,10.60
2017-11-03T10:14:59.830Z,10.50
2017-11-03T10:17:28.314Z,8.70
2017-11-03T10:19:56.797Z,10.90
2017-11-03T10:22:25.343Z,11.33
2017-11-03T10:24:53.649Z,9.73
2017-11-03T10:27:22.114Z,11.27
2017-11-03T10:29:50.600Z,9.00
2017-11-03T10:32:19.105Z,8.20
2017-11-03T10:34:47.596Z,9.40
2017-11-03T10:37:16.042Z,9.40
2017-11-03T10:39:44.547Z,8.83
2017-11-03T10:42:13.007Z,11.80
2017-11-03T10:44:41.465Z,9.60
2017-11-03T10:47:09.955Z,8.37
2017-11-03T10:49:39.311Z,11.00
2017-11-03T10:52:07.127Z,12.97
2017-11-03T10:54:35.607Z,8.13
2017-11-03T10:57:04.082Z,9.50
2017-11-03T10:59:32.550Z,9.93
2017-11-03T11:02:01.075Z,9.37
2017-11-03T11:04:29.206Z,11.37
2017-11-03T11:06:57.904Z,10.87
2017-11-03T11:09:26.389Z,7.87
2017-11-03T11:11:54.881Z,10.60
2017-11-03T11:14:23.026Z,8.67
2017-11-03T11:16:51.492Z,9.73
2017-11-03T11:19:20.003Z,11.37
2017-11-03T11:21:48.221Z,10.33
2017-11-03T11:24:16.694Z,14.23
2017-11-03T11:26:45.144Z,9.83
2017-11-03T11:29:13.461Z,8.40
2017-11-03T11:31:42.004Z,11.80
2017-11-03T11:34:11.217Z,15.30
2017-11-03T11:36:39.991Z,11.10
2017-11-03T11:39:08.100Z,10.90
2017-11-03T11:41:35.846Z,9.97
2017-11-03T11:44:04.827Z,8.77
2017-11-03T11:46:32.601Z,9.30
2017-11-03T11:49:00.432Z,9.80
2017-11-03T11:51:29.008Z,8.27
2017-11-03T11:53:56.739Z,11.07
2017-11-03T11:56:25.366Z,9.83
2017-11-03T11:58:53.872Z,8.93
2017-11-03T12:01:22.561Z,7.47
2017-11-03T12:03:51.075Z,7.30
2017-11-03T12:06:18.829Z,7.90
2017-11-03T12:08:46.591Z,7.83
2017-11-03T12:11:14.750Z,7.27
2017-11-03T12:13:43.262Z,7.03
2017-11-03T12:16:11.357Z,8.33
2017-11-03T12:18:39.489Z,7.70
2017-11-03T12:21:07.252Z,8.00
2017-11-03T12:23:35.358Z,8.20
2017-11-03T12:26:03.142Z,7.47
2017-11-03T12:28:30.920Z,13.37
2017-11-03T12:30:59.673Z,9.20
2017-11-03T12:33:27.476Z,8.60
2017-11-03T12:35:55.232Z,8.60
2017-11-03T12:38:22.964Z,8.87
2017-11-03T12:40:55.550Z,8.60
2017-11-03T12:43:23.283Z,6.70
2017-11-03T12:45:51.794Z,8.00
2017-11-03T12:48:19.581Z,7.93
2017-11-03T12:50:47.694Z,9.10
2017-11-03T12:53:16.231Z,8.47
2017-11-03T12:55:44.011Z,7.03
2017-11-03T12:58:12.146Z,8.27
2017-11-03T13:00:39.897Z,7.80
2017-11-03T13:03:07.730Z,10.20
2017-11-03T13:05:35.478Z,13.00
2017-11-03T13:08:03.202Z,11.40
2017-11-03T13:10:31.338Z,13.10
2017-11-03T13:12:59.429Z,10.50
2017-11-03T13:15:28.039Z,9.93
2017-11-03T13:17:55.834Z,9.80
2017-11-03T13:20:23.448Z,9.87
2017-11-03T13:22:51.594Z,9.03
2017-11-03T13:25:19.733Z,8.13
2017-11-03T13:27:47.670Z,10.67
2017-11-03T13:30:15.463Z,12.10
2017-11-03T13:32:43.269Z,10.30
2017-11-03T13:35:11.788Z,10.60
2017-11-03T13:37:39.530Z,11.40
2017-11-03T13:40:07.921Z,7.93
2017-11-03T13:42:36.460Z,11.53
2017-11-03T13:45:04.231Z,9.00
2017-11-03T13:47:31.997Z,12.33
2017-11-03T13:50:00.113Z,7.20
2017-11-03T13:52:29.349Z,9.70
2017-11-03T13:54:57.881Z,7.83
2017-11-03T13:57:26.732Z,8.90
2017-11-03T13:59:55.170Z,7.80
2017-11-03T14:02:23.689Z,8.03
2017-11-03T14:04:51.430Z,8.70
2017-11-03T14:07:20.292Z,10.00
2017-11-03T14:09:49.603Z,8.53
2017-11-03T14:12:18.788Z,7.53
2017-11-03T14:14:47.228Z,10.40
2017-11-03T14:17:15.733Z,7.90
2017-11-03T14:19:44.194Z,6.77
2017-11-03T14:22:12.618Z,8.17
2017-11-03T14:24:41.078Z,8.23
2017-11-03T14:27:09.801Z,7.57
2017-11-03T14:29:39.016Z,8.97
2017-11-03T14:32:07.464Z,8.83
2017-11-03T14:34:35.917Z,9.70
2017-11-03T14:37:04.397Z,8.77
2017-11-03T14:39:32.841Z,9.13
2017-11-03T14:42:01.000Z,11.27
2017-11-03T14:44:30.262Z,8.80
2017-11-03T14:46:58.783Z,12.70
2017-11-03T14:49:27.207Z,8.70
2017-11-03T14:51:55.722Z,9.80
2017-11-03T14:54:24.149Z,10.07
2017-11-03T14:56:52.563Z,11.80
2017-11-03T14:59:21.004Z,9.47
2017-11-03T15:01:49.443Z,10.77
2017-11-03T15:04:17.939Z,11.63
2017-11-03T15:06:46.570Z,12.63
2017-11-03T15:09:15.066Z,17.07
2017-11-03T15:11:43.511Z,11.30
2017-11-03T15:14:12.034Z,10.93
2017-11-03T15:16:40.478Z,12.37
2017-11-03T15:19:08.958Z,13.67
2017-11-03T15:21:37.426Z,14.53
2017-11-03T15:24:06.627Z,13.47
2017-11-03T15:26:35.060Z,10.60
2017-11-03T15:29:03.788Z,13.30
2017-11-03T15:31:32.216Z,14.67
2017-11-03T15:34:00.638Z,13.63
2017-11-03T15:36:29.084Z,11.70
2017-11-03T15:38:57.526Z,11.30
2017-11-03T15:41:26.709Z,13.73
2017-11-03T15:43:55.139Z,14.40
2017-11-03T15:46:23.796Z,12.00
2017-11-03T15:48:52.222Z,11.03
2017-11-03T15:51:20.313Z,14.80
2017-11-03T15:53:48.754Z,25.53
2017-11-03T15:56:16.849Z,13.67
2017-11-03T15:58:45.266Z,12.10
2017-11-03T16:01:13.950Z,17.00
2017-11-03T16:03:43.138Z,14.77
2017-11-03T16:06:11.559Z,16.13
2017-11-03T16:08:40.758Z,14.17
2017-11-03T16:11:09.211Z,14.87
2017-11-03T16:13:38.873Z,16.80
2017-11-03T16:16:07.294Z,18.80
2017-11-03T16:18:35.998Z,16.30
2017-11-03T16:21:05.186Z,15.10
2017-11-03T16:23:33.594Z,23.67
2017-11-03T16:26:02.813Z,39.23
2017-11-03T16:28:31.242Z,29.73
2017-11-03T16:31:00.608Z,21.13
2017-11-03T16:33:29.097Z,24.03
2017-11-03T16:35:57.896Z,24.87
2017-11-03T16:38:26.359Z,18.40
2017-11-03T16:40:54.915Z,19.00
2017-11-03T16:43:24.162Z,17.77
2017-11-03T16:45:51.950Z,19.73
2017-11-03T16:48:20.492Z,17.93
2017-11-03T16:50:48.444Z,17.30
2017-11-03T16:53:16.931Z,19.17
2017-11-03T16:55:45.057Z,20.73
2017-11-03T16:58:13.566Z,23.73
2017-11-03T17:00:41.974Z,18.98
2017-11-03T17:03:10.419Z,22.70
2017-11-03T17:05:38.548Z,26.37
2017-11-03T17:08:07.042Z,24.17
2017-11-03T17:10:35.471Z,26.00
2017-11-03T17:13:03.548Z,23.00
2017-11-03T17:15:32.021Z,26.13
2017-11-03T17:18:00.819Z,22.17
2017-11-03T17:20:30.018Z,17.80
2017-11-03T17:22:58.751Z,16.67
2017-11-03T17:25:26.990Z,18.63
2017-11-03T17:27:55.718Z,26.42
2017-11-03T17:30:24.160Z,20.20
2017-11-03T17:32:52.580Z,15.80
2017-11-03T17:35:21.038Z,16.87
2017-11-03T17:37:50.538Z,21.67
2017-11-03T17:40:18.982Z,13.00
2017-11-03T17:42:47.691Z,11.55
2017-11-03T17:45:16.405Z,16.15
2017-11-03T17:47:45.907Z,19.73
2017-11-03T17:50:14.396Z,20.87
2017-11-03T17:52:42.963Z,17.33
2017-11-03T17:55:12.518Z,17.35
2017-11-03T17:57:41.213Z,14.48
2017-11-03T18:00:09.380Z,17.70
2017-11-03T18:02:38.188Z,14.70
2017-11-03T18:05:06.604Z,16.23
2017-11-03T18:07:35.359Z,23.10
2017-11-03T18:10:03.958Z,18.92
2017-11-03T18:12:32.403Z,15.77
2017-11-03T18:15:00.824Z,15.68
2017-11-03T18:17:29.526Z,21.05
2017-11-03T18:19:59.086Z,21.05
2017-11-03T18:22:27.893Z,35.42
2017-11-03T18:24:56.844Z,25.35
2017-11-03T18:27:25.574Z,20.98
2017-11-03T18:29:54.415Z,24.75
2017-11-03T18:32:23.485Z,19.25
2017-11-03T18:34:52.355Z,18.15
2017-11-03T18:37:21.292Z,14.73
2017-11-03T18:39:50.034Z,19.05
2017-11-03T18:42:18.765Z,19.10
2017-11-03T18:44:49.540Z,36.67
2017-11-03T18:47:19.568Z,24.33
2017-11-03T18:49:49.657Z,21.75
2017-11-03T18:52:20.598Z,23.87
2017-11-03T18:54:50.028Z,25.52
2017-11-03T18:57:20.049Z,32.67
2017-11-03T18:59:49.604Z,30.70
2017-11-03T19:02:20.854Z,32.92
2017-11-03T19:04:49.781Z,35.40
2017-11-03T19:07:18.346Z,26.08
2017-11-03T19:09:47.230Z,47.47
2017-11-03T19:12:16.112Z,30.33
2017-11-03T19:14:45.189Z,31.12
2017-11-03T19:17:14.696Z,26.58
2017-11-03T19:19:43.176Z,29.60
2017-11-03T19:22:12.671Z,35.63
2017-11-03T19:24:41.688Z,29.80
2017-11-03T19:27:10.203Z,27.77
2017-11-03T19:29:38.464Z,37.05
2017-11-03T19:32:07.258Z,29.23
2017-11-03T19:34:36.030Z,29.42
2017-11-03T19:37:04.817Z,27.50
2017-11-03T19:39:35.549Z,27.35
2017-11-03T19:42:04.710Z,29.27
2017-11-03T19:44:33.655Z,26.60
2017-11-03T19:47:02.147Z,35.10
2017-11-03T19:49:31.524Z,24.63
2017-11-03T19:51:59.759Z,29.90
2017-11-03T19:54:28.555Z,32.28
2017-11-03T19:56:57.941Z,32.40
2017-11-03T19:59:26.784Z,28.23
2017-11-03T20:01:55.320Z,29.00
2017-11-03T20:04:23.905Z,26.10
2017-11-03T20:06:52.540Z,24.70
2017-11-03T20:09:22.083Z,25.90
2017-11-03T20:11:50.850Z,31.65
2017-11-03T20:14:19.381Z,25.20
2017-11-03T20:16:49.593Z,25.33
2017-11-03T20:19:18.340Z,27.17
2017-11-03T20:21:47.137Z,30.98
2017-11-03T20:24:15.628Z,24.70
2017-11-03T20:26:44.516Z,28.05
2017-11-03T20:29:13.792Z,26.98
2017-11-03T20:31:44.142Z,26.92
2017-11-03T20:34:13.210Z,25.48
2017-11-03T20:36:42.256Z,26.92
2017-11-03T20:39:10.872Z,29.27
2017-11-03T20:41:39.673Z,27.98
2017-11-03T20:44:09.480Z,28.58
2017-11-03T20:46:38.288Z,24.15
2017-11-03T20:49:07.349Z,22.08
2017-11-03T20:51:36.141Z,27.55
2017-11-03T20:54:05.700Z,31.12
2017-11-03T20:56:36.447Z,26.55
2017-11-03T20:59:04.985Z,29.43
2017-11-03T21:01:33.727Z,30.48
2017-11-03T21:04:02.497Z,35.00
2017-11-03T21:06:31.302Z,27.73
2017-11-03T21:09:01.898Z,36.25
2017-11-03T21:11:31.406Z,30.02
2017-11-03T21:14:00.961Z,32.00
2017-11-03T21:16:30.515Z,36.13
2017-11-03T21:19:00.285Z,35.97
2017-11-03T21:21:28.830Z,33.40
2017-11-03T21:23:57.587Z,34.63
2017-11-03T21:26:26.384Z,38.65
2017-11-03T21:28:55.184Z,39.45
2017-11-03T21:31:24.016Z,38.28
2017-11-03T21:33:52.779Z,39.97
2017-11-03T21:36:21.878Z,39.33
2017-11-03T21:38:50.675Z,39.05
2017-11-03T21:41:20.750Z,45.17
2017-11-03T21:43:49.982Z,34.83
2017-11-03T21:46:18.756Z,45.80
2017-11-03T21:48:47.516Z,35.67
2017-11-03T21:51:17.056Z,40.15
2017-11-03T21:53:46.575Z,45.83
2017-11-03T21:56:15.536Z,41.55
2017-11-03T21:58:44.292Z,33.55
2017-11-03T22:01:13.023Z,34.55
2017-11-03T22:03:41.728Z,34.65
2017-11-03T22:06:11.271Z,42.42
2017-11-03T22:08:40.003Z,43.38
2017-11-03T22:11:08.820Z,34.33
2017-11-03T22:13:37.590Z,34.05
2017-11-03T22:16:07.082Z,37.70
2017-11-03T22:18:35.837Z,37.35
2017-11-03T22:21:04.793Z,35.35
2017-11-03T22:23:34.307Z,37.80
2017-11-03T22:26:03.891Z,35.05
2017-11-03T22:28:33.379Z,35.38
2017-11-03T22:31:02.114Z,35.10
2017-11-03T22:33:30.880Z,32.35
2017-11-03T22:35:59.615Z,38.80
2017-11-03T22:38:28.415Z,40.58
2017-11-03T22:40:57.243Z,36.20
2017-11-03T22:43:26.898Z,39.60
2017-11-03T22:45:55.707Z,37.45
2017-11-03T22:48:24.450Z,39.88
2017-11-03T22:50:54.079Z,36.03
2017-11-03T22:53:22.871Z,31.60
2017-11-03T22:55:51.638Z,37.47
2017-11-03T22:58:20.371Z,36.00
2017-11-03T23:00:49.123Z,38.50
2017-11-03T23:03:18.242Z,37.55
2017-11-03T23:05:46.967Z,39.42
2017-11-03T23:08:15.750Z,47.55
2017-11-03T23:10:44.505Z,38.25
2017-11-03T23:13:13.966Z,45.85
2017-11-03T23:15:42.734Z,38.70
2017-11-03T23:18:11.438Z,40.25
2017-11-03T23:20:40.561Z,48.40
2017-11-03T23:23:09.409Z,42.17
2017-11-03T23:25:38.958Z,39.63
2017-11-03T23:28:07.707Z,42.05
2017-11-03T23:30:36.434Z,41.33
2017-11-03T23:33:05.757Z,42.65
2017-11-03T23:35:34.521Z,41.88
2017-11-03T23:38:03.570Z,41.78
2017-11-03T23:40:32.308Z,41.63
2017-11-03T23:43:01.282Z,43.83
2017-11-03T23:45:31.310Z,40.30
2017-11-03T23:48:00.806Z,36.85
2017-11-03T23:50:29.506Z,33.60
2017-11-03T23:52:58.807Z,38.20
2017-11-03T23:55:28.387Z,40.63
2017-11-03T23:57:57.082Z,40.97
